sensor_id;sensor_type;location;lat;lon;timestamp;temperature;humidity
5960;DHT22;3006;50.956;7.002;2023-05-27T00:02:02;14.90;99.90
5960;DHT22;3006;50.956;7.002;2023-05-27T00:04:30;15.00;99.90
5960;DHT22;3006;50.956;7.002;2023-05-27T00:06:59;14.90;99.90
5960;DHT22;3006;50.956;7.002;2023-05-27T00:09:28;14.80;99.90
5960;DHT22;3006;50.956;7.002;2023-05-27T00:11:56;14.80;99.90
5960;DHT22;3006;50.956;7.002;2023-05-27T00:14:25;14.70;99.90
5960;DHT22;3006;50.956;7.002;2023-05-27T00:16:53;14.60;99.90
5960;DHT22;3006;50.956;7.002;2023-05-27T00:19:21;14.60;99.90
5960;DHT22;3006;50.956;7.002;2023-05-27T00:21:50;14.60;99.90
5960;DHT22;3006;50.956;7.002;2023-05-27T00:24:19;14.60;99.90
5960;DHT22;3006;50.956;7.002;2023-05-27T00:26:49;14.50;99.90
5960;DHT22;3006;50.956;7.002;2023-05-27T00:29:17;14.50;99.90
5960;DHT22;3006;50.956;7.002;2023-05-27T00:31:45;14.50;99.90
5960;DHT22;3006;50.956;7.002;2023-05-27T00:34:13;14.50;99.90
5960;DHT22;3006;50.956;7.002;2023-05-27T00:36:41;14.50;99.90
5960;DHT22;3006;50.956;7.002;2023-05-27T00:39:10;14.40;99.90
5960;DHT22;3006;50.956;7.002;2023-05-27T00:41:38;14.50;99.90
5960;DHT22;3006;50.956;7.002;2023-05-27T00:44:11;14.50;99.90
5960;DHT22;3006;50.956;7.002;2023-05-27T00:46:39;14.40;99.90
5960;DHT22;3006;50.956;7.002;2023-05-27T00:49:07;14.40;99.90
5960;DHT22;3006;50.956;7.002;2023-05-27T00:51:35;14.40;99.90
5960;DHT22;3006;50.956;7.002;2023-05-27T00:54:04;14.30;99.90
5960;DHT22;3006;50.956;7.002;2023-05-27T00:56:33;14.30;99.90
5960;DHT22;3006;50.956;7.002;2023-05-27T00:59:01;14.30;99.90
5960;DHT22;3006;50.956;7.002;2023-05-27T01:01:31;14.30;99.90
5960;DHT22;3006;50.956;7.002;2023-05-27T01:04:00;14.20;99.90
5960;DHT22;3006;50.956;7.002;2023-05-27T01:06:35;14.10;99.90
5960;DHT22;3006;50.956;7.002;2023-05-27T01:09:13;14.10;99.90
5960;DHT22;3006;50.956;7.002;2023-05-27T01:11:45;14.00;99.90
5960;DHT22;3006;50.956;7.002;2023-05-27T01:14:16;14.00;99.90
5960;DHT22;3006;50.956;7.002;2023-05-27T01:16:48;14.00;99.90
5960;DHT22;3006;50.956;7.002;2023-05-27T01:19:27;13.90;99.90
5960;DHT22;3006;50.956;7.002;2023-05-27T01:21:58;13.90;99.90
5960;DHT22;3006;50.956;7.002;2023-05-27T01:24:29;13.90;99.90
5960;DHT22;3006;50.956;7.002;2023-05-27T01:26:57;13.80;99.90
5960;DHT22;3006;50.956;7.002;2023-05-27T01:29:29;13.80;99.90
5960;DHT22;3006;50.956;7.002;2023-05-27T01:32:02;13.80;99.90
5960;DHT22;3006;50.956;7.002;2023-05-27T01:34:36;13.90;99.90
5960;DHT22;3006;50.956;7.002;2023-05-27T01:37:09;13.80;99.90
5960;DHT22;3006;50.956;7.002;2023-05-27T01:39:41;13.80;99.90
5960;DHT22;3006;50.956;7.002;2023-05-27T01:42:10;13.90;99.90
5960;DHT22;3006;50.956;7.002;2023-05-27T01:44:39;13.80;99.90
5960;DHT22;3006;50.956;7.002;2023-05-27T01:47:07;13.80;99.90
5960;DHT22;3006;50.956;7.002;2023-05-27T01:49:35;13.70;99.90
5960;DHT22;3006;50.956;7.002;2023-05-27T01:52:04;13.70;99.90
5960;DHT22;3006;50.956;7.002;2023-05-27T01:54:32;13.60;99.90
5960;DHT22;3006;50.956;7.002;2023-05-27T01:57:02;13.60;99.90
5960;DHT22;3006;50.956;7.002;2023-05-27T01:59:30;13.60;99.90
5960;DHT22;3006;50.956;7.002;2023-05-27T02:01:58;13.60;99.90
5960;DHT22;3006;50.956;7.002;2023-05-27T02:04:26;13.50;99.90
5960;DHT22;3006;50.956;7.002;2023-05-27T02:06:54;13.50;99.90
5960;DHT22;3006;50.956;7.002;2023-05-27T02:09:24;13.40;99.90
5960;DHT22;3006;50.956;7.002;2023-05-27T02:11:53;13.40;99.90
5960;DHT22;3006;50.956;7.002;2023-05-27T02:14:23;13.30;99.90
5960;DHT22;3006;50.956;7.002;2023-05-27T02:16:51;13.30;99.90
5960;DHT22;3006;50.956;7.002;2023-05-27T02:19:19;13.30;99.90
5960;DHT22;3006;50.956;7.002;2023-05-27T02:21:47;13.30;99.90
5960;DHT22;3006;50.956;7.002;2023-05-27T02:24:15;13.30;99.90
5960;DHT22;3006;50.956;7.002;2023-05-27T02:26:43;13.30;99.90
5960;DHT22;3006;50.956;7.002;2023-05-27T02:29:11;13.20;99.90
5960;DHT22;3006;50.956;7.002;2023-05-27T02:31:41;13.20;99.90
5960;DHT22;3006;50.956;7.002;2023-05-27T02:34:09;13.20;99.90
5960;DHT22;3006;50.956;7.002;2023-05-27T02:36:37;13.10;99.90
5960;DHT22;3006;50.956;7.002;2023-05-27T02:39:06;13.10;99.90
5960;DHT22;3006;50.956;7.002;2023-05-27T02:41:35;13.00;99.90
5960;DHT22;3006;50.956;7.002;2023-05-27T02:44:05;13.00;99.90
5960;DHT22;3006;50.956;7.002;2023-05-27T02:46:33;13.00;99.90
5960;DHT22;3006;50.956;7.002;2023-05-27T02:49:03;13.00;99.90
5960;DHT22;3006;50.956;7.002;2023-05-27T02:51:31;12.90;99.90
5960;DHT22;3006;50.956;7.002;2023-05-27T02:53:59;12.90;99.90
5960;DHT22;3006;50.956;7.002;2023-05-27T02:56:27;12.90;99.90
5960;DHT22;3006;50.956;7.002;2023-05-27T02:58:55;12.90;99.90
5960;DHT22;3006;50.956;7.002;2023-05-27T03:01:23;12.90;99.90
5960;DHT22;3006;50.956;7.002;2023-05-27T03:03:52;12.80;99.90
5960;DHT22;3006;50.956;7.002;2023-05-27T03:06:22;12.80;99.90
5960;DHT22;3006;50.956;7.002;2023-05-27T03:08:50;12.80;99.90
5960;DHT22;3006;50.956;7.002;2023-05-27T03:11:18;12.80;99.90
5960;DHT22;3006;50.956;7.002;2023-05-27T03:13:46;12.70;99.90
5960;DHT22;3006;50.956;7.002;2023-05-27T03:16:14;12.70;99.90
5960;DHT22;3006;50.956;7.002;2023-05-27T03:18:43;12.70;99.90
5960;DHT22;3006;50.956;7.002;2023-05-27T03:21:11;12.70;99.90
5960;DHT22;3006;50.956;7.002;2023-05-27T03:23:40;12.60;99.90
5960;DHT22;3006;50.956;7.002;2023-05-27T03:26:09;12.70;99.90
5960;DHT22;3006;50.956;7.002;2023-05-27T03:28:37;12.60;99.90
5960;DHT22;3006;50.956;7.002;2023-05-27T03:31:05;12.60;99.90
5960;DHT22;3006;50.956;7.002;2023-05-27T03:33:53;12.50;99.90
5960;DHT22;3006;50.956;7.002;2023-05-27T03:36:22;12.50;99.90
5960;DHT22;3006;50.956;7.002;2023-05-27T03:38:53;12.50;99.90
5960;DHT22;3006;50.956;7.002;2023-05-27T03:41:21;12.50;99.90
5960;DHT22;3006;50.956;7.002;2023-05-27T03:43:49;12.40;99.90
5960;DHT22;3006;50.956;7.002;2023-05-27T03:46:18;12.40;99.90
5960;DHT22;3006;50.956;7.002;2023-05-27T03:48:47;12.50;99.90
5960;DHT22;3006;50.956;7.002;2023-05-27T03:51:15;12.40;99.90
5960;DHT22;3006;50.956;7.002;2023-05-27T03:53:44;12.40;99.90
5960;DHT22;3006;50.956;7.002;2023-05-27T03:56:13;12.40;99.90
5960;DHT22;3006;50.956;7.002;2023-05-27T03:58:42;12.40;99.90
5960;DHT22;3006;50.956;7.002;2023-05-27T04:01:12;12.40;99.90
5960;DHT22;3006;50.956;7.002;2023-05-27T04:03:40;12.40;99.90
5960;DHT22;3006;50.956;7.002;2023-05-27T04:06:09;12.40;99.90
5960;DHT22;3006;50.956;7.002;2023-05-27T04:08:38;12.40;99.90
5960;DHT22;3006;50.956;7.002;2023-05-27T04:11:10;12.40;99.90
5960;DHT22;3006;50.956;7.002;2023-05-27T04:13:40;12.40;99.90
5960;DHT22;3006;50.956;7.002;2023-05-27T04:16:09;12.40;99.90
5960;DHT22;3006;50.956;7.002;2023-05-27T04:18:37;12.40;99.90
5960;DHT22;3006;50.956;7.002;2023-05-27T04:21:05;12.40;99.90
5960;DHT22;3006;50.956;7.002;2023-05-27T04:23:35;12.40;99.90
5960;DHT22;3006;50.956;7.002;2023-05-27T04:26:04;12.50;99.90
5960;DHT22;3006;50.956;7.002;2023-05-27T04:28:37;12.50;99.90
5960;DHT22;3006;50.956;7.002;2023-05-27T04:31:07;12.50;99.90
5960;DHT22;3006;50.956;7.002;2023-05-27T04:33:45;12.50;99.90
5960;DHT22;3006;50.956;7.002;2023-05-27T04:36:14;12.50;99.90
5960;DHT22;3006;50.956;7.002;2023-05-27T04:38:57;12.50;99.90
5960;DHT22;3006;50.956;7.002;2023-05-27T04:41:26;12.50;99.90
5960;DHT22;3006;50.956;7.002;2023-05-27T04:44:18;12.50;99.90
5960;DHT22;3006;50.956;7.002;2023-05-27T04:46:49;12.50;99.90
5960;DHT22;3006;50.956;7.002;2023-05-27T04:49:18;12.50;99.90
5960;DHT22;3006;50.956;7.002;2023-05-27T04:51:46;12.50;99.90
5960;DHT22;3006;50.956;7.002;2023-05-27T04:54:18;12.50;99.90
5960;DHT22;3006;50.956;7.002;2023-05-27T04:56:49;12.60;99.90
5960;DHT22;3006;50.956;7.002;2023-05-27T04:59:22;12.50;99.90
5960;DHT22;3006;50.956;7.002;2023-05-27T05:01:58;12.60;99.90
5960;DHT22;3006;50.956;7.002;2023-05-27T05:04:44;12.60;99.90
5960;DHT22;3006;50.956;7.002;2023-05-27T05:07:13;12.60;99.90
5960;DHT22;3006;50.956;7.002;2023-05-27T05:09:41;12.60;99.90
5960;DHT22;3006;50.956;7.002;2023-05-27T05:12:17;12.60;99.90
5960;DHT22;3006;50.956;7.002;2023-05-27T05:14:48;12.70;99.90
5960;DHT22;3006;50.956;7.002;2023-05-27T05:17:18;12.70;99.90
5960;DHT22;3006;50.956;7.002;2023-05-27T05:19:48;12.70;99.90
5960;DHT22;3006;50.956;7.002;2023-05-27T05:22:16;12.70;99.90
5960;DHT22;3006;50.956;7.002;2023-05-27T05:24:48;12.80;99.90
5960;DHT22;3006;50.956;7.002;2023-05-27T05:27:17;12.80;99.90
5960;DHT22;3006;50.956;7.002;2023-05-27T05:29:46;12.80;99.90
5960;DHT22;3006;50.956;7.002;2023-05-27T05:32:15;12.90;99.90
5960;DHT22;3006;50.956;7.002;2023-05-27T05:34:44;12.90;99.90
5960;DHT22;3006;50.956;7.002;2023-05-27T05:37:12;12.90;99.90
5960;DHT22;3006;50.956;7.002;2023-05-27T05:39:42;13.00;99.90
5960;DHT22;3006;50.956;7.002;2023-05-27T05:42:11;13.00;99.90
5960;DHT22;3006;50.956;7.002;2023-05-27T05:44:39;13.00;99.90
5960;DHT22;3006;50.956;7.002;2023-05-27T05:47:08;13.10;99.90
5960;DHT22;3006;50.956;7.002;2023-05-27T05:49:36;13.10;99.90
5960;DHT22;3006;50.956;7.002;2023-05-27T05:52:07;13.10;99.90
5960;DHT22;3006;50.956;7.002;2023-05-27T05:54:35;13.20;99.90
5960;DHT22;3006;50.956;7.002;2023-05-27T05:57:04;13.40;99.90
5960;DHT22;3006;50.956;7.002;2023-05-27T05:59:32;13.50;99.90
5960;DHT22;3006;50.956;7.002;2023-05-27T06:02:00;13.50;99.90
5960;DHT22;3006;50.956;7.002;2023-05-27T06:04:29;13.60;99.90
5960;DHT22;3006;50.956;7.002;2023-05-27T06:06:57;13.50;99.90
5960;DHT22;3006;50.956;7.002;2023-05-27T06:09:31;13.60;99.90
5960;DHT22;3006;50.956;7.002;2023-05-27T06:12:04;13.70;99.90
5960;DHT22;3006;50.956;7.002;2023-05-27T06:14:40;13.70;99.90
5960;DHT22;3006;50.956;7.002;2023-05-27T06:17:10;13.70;99.90
5960;DHT22;3006;50.956;7.002;2023-05-27T06:19:38;13.80;99.90
5960;DHT22;3006;50.956;7.002;2023-05-27T06:22:06;13.80;99.90
5960;DHT22;3006;50.956;7.002;2023-05-27T06:25:02;13.90;99.90
5960;DHT22;3006;50.956;7.002;2023-05-27T06:27:51;13.90;99.90
5960;DHT22;3006;50.956;7.002;2023-05-27T06:30:20;14.00;99.90
5960;DHT22;3006;50.956;7.002;2023-05-27T06:32:49;14.10;99.90
5960;DHT22;3006;50.956;7.002;2023-05-27T06:35:19;14.20;99.90
5960;DHT22;3006;50.956;7.002;2023-05-27T06:37:47;14.20;99.90
5960;DHT22;3006;50.956;7.002;2023-05-27T06:40:18;14.20;99.90
5960;DHT22;3006;50.956;7.002;2023-05-27T06:42:46;14.30;99.90
5960;DHT22;3006;50.956;7.002;2023-05-27T06:45:36;14.40;99.90
5960;DHT22;3006;50.956;7.002;2023-05-27T06:48:26;14.50;99.90
5960;DHT22;3006;50.956;7.002;2023-05-27T06:50:55;14.50;99.90
5960;DHT22;3006;50.956;7.002;2023-05-27T06:53:23;14.50;99.90
5960;DHT22;3006;50.956;7.002;2023-05-27T06:56:02;14.50;99.90
5960;DHT22;3006;50.956;7.002;2023-05-27T06:58:56;14.60;99.90
5960;DHT22;3006;50.956;7.002;2023-05-27T07:01:25;14.70;99.90
5960;DHT22;3006;50.956;7.002;2023-05-27T07:03:59;14.80;99.90
5960;DHT22;3006;50.956;7.002;2023-05-27T07:06:47;14.80;99.90
5960;DHT22;3006;50.956;7.002;2023-05-27T07:09:16;14.80;99.90
5960;DHT22;3006;50.956;7.002;2023-05-27T07:11:46;14.80;99.90
5960;DHT22;3006;50.956;7.002;2023-05-27T07:14:34;14.90;99.90
5960;DHT22;3006;50.956;7.002;2023-05-27T07:17:03;14.90;99.90
5960;DHT22;3006;50.956;7.002;2023-05-27T07:19:32;15.00;99.90
5960;DHT22;3006;50.956;7.002;2023-05-27T07:22:04;15.10;99.90
5960;DHT22;3006;50.956;7.002;2023-05-27T07:24:32;15.10;99.90
5960;DHT22;3006;50.956;7.002;2023-05-27T07:27:02;15.20;99.90
5960;DHT22;3006;50.956;7.002;2023-05-27T07:29:33;15.30;99.90
5960;DHT22;3006;50.956;7.002;2023-05-27T07:32:13;15.30;99.90
5960;DHT22;3006;50.956;7.002;2023-05-27T07:34:42;15.30;99.90
5960;DHT22;3006;50.956;7.002;2023-05-27T07:37:10;15.40;99.90
5960;DHT22;3006;50.956;7.002;2023-05-27T07:39:38;15.60;99.90
5960;DHT22;3006;50.956;7.002;2023-05-27T07:42:09;15.70;99.90
5960;DHT22;3006;50.956;7.002;2023-05-27T07:44:37;15.70;99.90
5960;DHT22;3006;50.956;7.002;2023-05-27T07:47:06;15.80;99.90
5960;DHT22;3006;50.956;7.002;2023-05-27T07:49:34;15.90;99.90
5960;DHT22;3006;50.956;7.002;2023-05-27T07:52:23;15.90;99.90
5960;DHT22;3006;50.956;7.002;2023-05-27T07:54:51;15.90;99.90
5960;DHT22;3006;50.956;7.002;2023-05-27T07:57:25;16.00;99.90
5960;DHT22;3006;50.956;7.002;2023-05-27T07:59:54;16.00;99.90
5960;DHT22;3006;50.956;7.002;2023-05-27T08:02:30;16.00;99.90
5960;DHT22;3006;50.956;7.002;2023-05-27T08:04:59;16.10;99.90
5960;DHT22;3006;50.956;7.002;2023-05-27T08:07:57;16.00;99.90
5960;DHT22;3006;50.956;7.002;2023-05-27T08:10:54;16.00;99.90
5960;DHT22;3006;50.956;7.002;2023-05-27T08:13:48;16.10;99.90
5960;DHT22;3006;50.956;7.002;2023-05-27T08:16:42;16.20;99.90
5960;DHT22;3006;50.956;7.002;2023-05-27T08:19:31;16.50;99.90
5960;DHT22;3006;50.956;7.002;2023-05-27T08:22:18;16.60;99.90
5960;DHT22;3006;50.956;7.002;2023-05-27T08:24:58;16.70;99.90
5960;DHT22;3006;50.956;7.002;2023-05-27T08:27:54;16.70;99.90
5960;DHT22;3006;50.956;7.002;2023-05-27T08:30:42;16.80;99.90
5960;DHT22;3006;50.956;7.002;2023-05-27T08:33:16;16.80;99.90
5960;DHT22;3006;50.956;7.002;2023-05-27T08:35:45;16.80;99.90
5960;DHT22;3006;50.956;7.002;2023-05-27T08:38:14;16.90;99.90
5960;DHT22;3006;50.956;7.002;2023-05-27T08:40:42;17.00;99.90
5960;DHT22;3006;50.956;7.002;2023-05-27T08:43:11;17.10;99.90
5960;DHT22;3006;50.956;7.002;2023-05-27T08:45:45;17.20;99.90
5960;DHT22;3006;50.956;7.002;2023-05-27T08:48:13;17.30;99.90
5960;DHT22;3006;50.956;7.002;2023-05-27T08:50:44;17.20;99.90
5960;DHT22;3006;50.956;7.002;2023-05-27T08:53:13;17.20;99.90
5960;DHT22;3006;50.956;7.002;2023-05-27T08:55:43;17.20;99.90
5960;DHT22;3006;50.956;7.002;2023-05-27T08:58:13;17.20;99.90
5960;DHT22;3006;50.956;7.002;2023-05-27T09:00:47;17.30;99.90
5960;DHT22;3006;50.956;7.002;2023-05-27T09:03:19;17.40;99.90
5960;DHT22;3006;50.956;7.002;2023-05-27T09:05:50;17.40;99.90
5960;DHT22;3006;50.956;7.002;2023-05-27T09:08:18;17.50;99.90
5960;DHT22;3006;50.956;7.002;2023-05-27T09:10:46;17.60;99.90
5960;DHT22;3006;50.956;7.002;2023-05-27T09:13:25;17.70;99.90
5960;DHT22;3006;50.956;7.002;2023-05-27T09:15:59;17.80;99.90
5960;DHT22;3006;50.956;7.002;2023-05-27T09:18:29;17.80;99.90
5960;DHT22;3006;50.956;7.002;2023-05-27T09:20:57;17.80;99.90
5960;DHT22;3006;50.956;7.002;2023-05-27T09:23:26;17.80;99.90
5960;DHT22;3006;50.956;7.002;2023-05-27T09:25:54;17.80;99.90
5960;DHT22;3006;50.956;7.002;2023-05-27T09:28:22;17.80;99.90
5960;DHT22;3006;50.956;7.002;2023-05-27T09:30:58;17.90;99.90
5960;DHT22;3006;50.956;7.002;2023-05-27T09:33:31;17.90;99.90
5960;DHT22;3006;50.956;7.002;2023-05-27T09:36:00;18.00;99.90
5960;DHT22;3006;50.956;7.002;2023-05-27T09:38:28;18.10;99.90
5960;DHT22;3006;50.956;7.002;2023-05-27T09:40:57;18.20;99.90
5960;DHT22;3006;50.956;7.002;2023-05-27T09:43:25;18.50;99.90
5960;DHT22;3006;50.956;7.002;2023-05-27T09:45:59;18.60;99.90
5960;DHT22;3006;50.956;7.002;2023-05-27T09:48:30;18.80;99.90
5960;DHT22;3006;50.956;7.002;2023-05-27T09:50:59;18.90;99.90
5960;DHT22;3006;50.956;7.002;2023-05-27T09:53:28;19.00;99.90
5960;DHT22;3006;50.956;7.002;2023-05-27T09:55:58;19.00;99.90
5960;DHT22;3006;50.956;7.002;2023-05-27T09:58:27;18.80;99.90
5960;DHT22;3006;50.956;7.002;2023-05-27T10:00:56;18.80;99.90
5960;DHT22;3006;50.956;7.002;2023-05-27T10:03:25;18.70;99.90
5960;DHT22;3006;50.956;7.002;2023-05-27T10:05:56;18.70;99.90
5960;DHT22;3006;50.956;7.002;2023-05-27T10:08:25;18.70;99.90
5960;DHT22;3006;50.956;7.002;2023-05-27T10:10:54;18.70;99.90
5960;DHT22;3006;50.956;7.002;2023-05-27T10:13:24;18.80;99.90
5960;DHT22;3006;50.956;7.002;2023-05-27T10:15:52;18.80;99.80
5960;DHT22;3006;50.956;7.002;2023-05-27T10:18:25;18.80;99.90
5960;DHT22;3006;50.956;7.002;2023-05-27T10:20:57;18.90;98.90
5960;DHT22;3006;50.956;7.002;2023-05-27T10:23:26;19.00;98.00
5960;DHT22;3006;50.956;7.002;2023-05-27T10:25:56;19.10;97.10
5960;DHT22;3006;50.956;7.002;2023-05-27T10:28:26;19.30;95.90
5960;DHT22;3006;50.956;7.002;2023-05-27T10:31:04;19.50;95.30
5960;DHT22;3006;50.956;7.002;2023-05-27T10:33:34;19.70;94.80
5960;DHT22;3006;50.956;7.002;2023-05-27T10:36:07;19.80;94.40
5960;DHT22;3006;50.956;7.002;2023-05-27T10:38:36;19.80;93.90
5960;DHT22;3006;50.956;7.002;2023-05-27T10:41:06;19.80;92.70
5960;DHT22;3006;50.956;7.002;2023-05-27T10:43:35;19.80;92.90
5960;DHT22;3006;50.956;7.002;2023-05-27T10:46:06;19.80;93.20
5960;DHT22;3006;50.956;7.002;2023-05-27T10:48:35;19.90;93.10
5960;DHT22;3006;50.956;7.002;2023-05-27T10:51:06;20.00;92.60
5960;DHT22;3006;50.956;7.002;2023-05-27T10:53:35;20.10;92.80
5960;DHT22;3006;50.956;7.002;2023-05-27T10:56:04;20.20;92.40
5960;DHT22;3006;50.956;7.002;2023-05-27T10:58:34;20.30;92.00
5960;DHT22;3006;50.956;7.002;2023-05-27T11:01:08;20.40;91.10
5960;DHT22;3006;50.956;7.002;2023-05-27T11:03:42;20.40;90.90
5960;DHT22;3006;50.956;7.002;2023-05-27T11:06:12;20.40;91.10
5960;DHT22;3006;50.956;7.002;2023-05-27T11:08:42;20.40;91.00
5960;DHT22;3006;50.956;7.002;2023-05-27T11:11:11;20.30;91.10
5960;DHT22;3006;50.956;7.002;2023-05-27T11:13:41;20.40;91.10
5960;DHT22;3006;50.956;7.002;2023-05-27T11:16:14;20.40;90.90
5960;DHT22;3006;50.956;7.002;2023-05-27T11:18:44;20.50;91.10
5960;DHT22;3006;50.956;7.002;2023-05-27T11:21:16;20.50;90.60
5960;DHT22;3006;50.956;7.002;2023-05-27T11:23:46;20.60;88.20
5960;DHT22;3006;50.956;7.002;2023-05-27T11:26:16;20.60;87.80
5960;DHT22;3006;50.956;7.002;2023-05-27T11:28:53;20.60;85.30
5960;DHT22;3006;50.956;7.002;2023-05-27T11:31:22;20.60;85.00
5960;DHT22;3006;50.956;7.002;2023-05-27T11:33:54;20.80;85.00
5960;DHT22;3006;50.956;7.002;2023-05-27T11:36:26;20.90;84.10
5960;DHT22;3006;50.956;7.002;2023-05-27T11:38:57;21.00;80.60
5960;DHT22;3006;50.956;7.002;2023-05-27T11:41:27;21.00;81.80
5960;DHT22;3006;50.956;7.002;2023-05-27T11:43:57;21.00;83.20
5960;DHT22;3006;50.956;7.002;2023-05-27T11:46:33;21.10;82.10
5960;DHT22;3006;50.956;7.002;2023-05-27T11:49:03;21.10;82.40
5960;DHT22;3006;50.956;7.002;2023-05-27T11:51:33;21.30;81.90
5960;DHT22;3006;50.956;7.002;2023-05-27T11:54:02;21.40;82.20
5960;DHT22;3006;50.956;7.002;2023-05-27T11:56:30;21.60;82.90
5960;DHT22;3006;50.956;7.002;2023-05-27T11:58:58;21.70;81.50
5960;DHT22;3006;50.956;7.002;2023-05-27T12:01:26;21.60;78.10
5960;DHT22;3006;50.956;7.002;2023-05-27T12:03:54;21.60;78.30
5960;DHT22;3006;50.956;7.002;2023-05-27T12:06:22;21.70;76.20
5960;DHT22;3006;50.956;7.002;2023-05-27T12:08:52;21.70;75.00
5960;DHT22;3006;50.956;7.002;2023-05-27T12:11:20;21.70;75.10
5960;DHT22;3006;50.956;7.002;2023-05-27T12:13:49;21.90;74.60
5960;DHT22;3006;50.956;7.002;2023-05-27T12:16:17;22.10;73.60
5960;DHT22;3006;50.956;7.002;2023-05-27T12:18:46;22.20;73.60
5960;DHT22;3006;50.956;7.002;2023-05-27T12:21:14;22.20;72.70
5960;DHT22;3006;50.956;7.002;2023-05-27T12:23:43;22.30;72.70
5960;DHT22;3006;50.956;7.002;2023-05-27T12:26:13;22.30;72.00
5960;DHT22;3006;50.956;7.002;2023-05-27T12:28:42;22.30;70.90
5960;DHT22;3006;50.956;7.002;2023-05-27T12:31:10;22.30;70.50
5960;DHT22;3006;50.956;7.002;2023-05-27T12:33:38;22.50;71.30
5960;DHT22;3006;50.956;7.002;2023-05-27T12:36:07;22.60;70.80
5960;DHT22;3006;50.956;7.002;2023-05-27T12:38:35;22.80;68.60
5960;DHT22;3006;50.956;7.002;2023-05-27T12:41:03;23.00;66.20
5960;DHT22;3006;50.956;7.002;2023-05-27T12:43:33;22.90;65.00
5960;DHT22;3006;50.956;7.002;2023-05-27T12:46:01;22.80;65.30
5960;DHT22;3006;50.956;7.002;2023-05-27T12:48:29;23.00;65.60
5960;DHT22;3006;50.956;7.002;2023-05-27T12:50:57;23.00;65.00
5960;DHT22;3006;50.956;7.002;2023-05-27T12:53:25;23.10;65.10
5960;DHT22;3006;50.956;7.002;2023-05-27T12:55:53;23.10;65.10
5960;DHT22;3006;50.956;7.002;2023-05-27T12:58:21;23.20;64.10
5960;DHT22;3006;50.956;7.002;2023-05-27T13:00:50;23.30;64.20
5960;DHT22;3006;50.956;7.002;2023-05-27T13:03:18;23.30;64.30
5960;DHT22;3006;50.956;7.002;2023-05-27T13:05:47;23.50;63.90
5960;DHT22;3006;50.956;7.002;2023-05-27T13:08:15;23.70;63.80
5960;DHT22;3006;50.956;7.002;2023-05-27T13:10:44;23.90;60.10
5960;DHT22;3006;50.956;7.002;2023-05-27T13:13:12;24.00;58.80
5960;DHT22;3006;50.956;7.002;2023-05-27T13:15:40;24.10;58.30
5960;DHT22;3006;50.956;7.002;2023-05-27T13:18:10;24.20;59.80
5960;DHT22;3006;50.956;7.002;2023-05-27T13:20:38;24.40;60.10
5960;DHT22;3006;50.956;7.002;2023-05-27T13:23:06;24.50;57.20
5960;DHT22;3006;50.956;7.002;2023-05-27T13:25:34;24.50;57.90
5960;DHT22;3006;50.956;7.002;2023-05-27T13:28:03;24.60;57.00
5960;DHT22;3006;50.956;7.002;2023-05-27T13:30:31;24.70;56.70
5960;DHT22;3006;50.956;7.002;2023-05-27T13:32:59;24.70;56.30
5960;DHT22;3006;50.956;7.002;2023-05-27T13:35:29;24.90;57.20
5960;DHT22;3006;50.956;7.002;2023-05-27T13:37:57;25.10;57.80
5960;DHT22;3006;50.956;7.002;2023-05-27T13:40:27;25.30;57.70
5960;DHT22;3006;50.956;7.002;2023-05-27T13:42:55;25.50;58.00
5960;DHT22;3006;50.956;7.002;2023-05-27T13:45:23;25.60;57.10
5960;DHT22;3006;50.956;7.002;2023-05-27T13:47:51;25.80;55.20
5960;DHT22;3006;50.956;7.002;2023-05-27T13:50:20;26.00;54.30
5960;DHT22;3006;50.956;7.002;2023-05-27T13:52:49;26.10;53.50
5960;DHT22;3006;50.956;7.002;2023-05-27T13:55:17;26.20;53.10
5960;DHT22;3006;50.956;7.002;2023-05-27T13:57:45;26.10;53.70
5960;DHT22;3006;50.956;7.002;2023-05-27T14:00:14;26.10;54.60
5960;DHT22;3006;50.956;7.002;2023-05-27T14:02:43;26.10;54.40
5960;DHT22;3006;50.956;7.002;2023-05-27T14:05:12;26.30;54.70
5960;DHT22;3006;50.956;7.002;2023-05-27T14:07:40;26.60;54.20
5960;DHT22;3006;50.956;7.002;2023-05-27T14:10:11;26.60;53.70
5960;DHT22;3006;50.956;7.002;2023-05-27T14:12:39;26.70;53.70
5960;DHT22;3006;50.956;7.002;2023-05-27T14:15:08;26.80;53.30
5960;DHT22;3006;50.956;7.002;2023-05-27T14:17:37;26.90;53.20
5960;DHT22;3006;50.956;7.002;2023-05-27T14:20:06;26.80;52.90
5960;DHT22;3006;50.956;7.002;2023-05-27T14:22:37;26.80;52.50
5960;DHT22;3006;50.956;7.002;2023-05-27T14:25:06;27.10;52.30
5960;DHT22;3006;50.956;7.002;2023-05-27T14:27:36;27.20;51.90
5960;DHT22;3006;50.956;7.002;2023-05-27T14:30:05;27.40;52.10
5960;DHT22;3006;50.956;7.002;2023-05-27T14:32:33;27.40;50.00
5960;DHT22;3006;50.956;7.002;2023-05-27T14:35:01;27.40;49.60
5960;DHT22;3006;50.956;7.002;2023-05-27T14:37:29;27.40;49.10
5960;DHT22;3006;50.956;7.002;2023-05-27T14:39:57;27.60;49.90
5960;DHT22;3006;50.956;7.002;2023-05-27T14:42:26;27.80;50.60
5960;DHT22;3006;50.956;7.002;2023-05-27T14:44:55;27.90;49.70
5960;DHT22;3006;50.956;7.002;2023-05-27T14:47:23;27.90;50.20
5960;DHT22;3006;50.956;7.002;2023-05-27T14:49:51;28.20;50.40
5960;DHT22;3006;50.956;7.002;2023-05-27T14:52:19;28.20;48.00
5960;DHT22;3006;50.956;7.002;2023-05-27T14:54:47;28.10;47.60
5960;DHT22;3006;50.956;7.002;2023-05-27T14:57:15;28.10;47.90
5960;DHT22;3006;50.956;7.002;2023-05-27T14:59:43;28.20;46.70
5960;DHT22;3006;50.956;7.002;2023-05-27T15:02:13;28.40;46.80
5960;DHT22;3006;50.956;7.002;2023-05-27T15:04:41;28.70;46.10
5960;DHT22;3006;50.956;7.002;2023-05-27T15:07:09;28.70;46.30
5960;DHT22;3006;50.956;7.002;2023-05-27T15:09:37;28.60;45.30
5960;DHT22;3006;50.956;7.002;2023-05-27T15:12:06;28.80;45.60
5960;DHT22;3006;50.956;7.002;2023-05-27T15:14:34;29.30;44.30
5960;DHT22;3006;50.956;7.002;2023-05-27T15:17:02;29.60;44.10
5960;DHT22;3006;50.956;7.002;2023-05-27T15:19:32;29.30;43.50
5960;DHT22;3006;50.956;7.002;2023-05-27T15:22:01;29.30;43.70
5960;DHT22;3006;50.956;7.002;2023-05-27T15:24:29;29.30;45.00
5960;DHT22;3006;50.956;7.002;2023-05-27T15:26:57;29.30;44.10
5960;DHT22;3006;50.956;7.002;2023-05-27T15:29:25;29.40;43.60
5960;DHT22;3006;50.956;7.002;2023-05-27T15:31:54;29.40;43.50
5960;DHT22;3006;50.956;7.002;2023-05-27T15:34:22;29.30;42.10
5960;DHT22;3006;50.956;7.002;2023-05-27T15:36:52;28.80;42.10
5960;DHT22;3006;50.956;7.002;2023-05-27T15:39:21;28.40;42.50
5960;DHT22;3006;50.956;7.002;2023-05-27T15:41:49;28.10;41.90
5960;DHT22;3006;50.956;7.002;2023-05-27T15:44:17;27.80;42.30
5960;DHT22;3006;50.956;7.002;2023-05-27T15:46:46;27.50;43.30
5960;DHT22;3006;50.956;7.002;2023-05-27T15:49:14;27.10;42.60
5960;DHT22;3006;50.956;7.002;2023-05-27T15:51:43;26.80;42.60
5960;DHT22;3006;50.956;7.002;2023-05-27T15:54:12;26.70;43.20
5960;DHT22;3006;50.956;7.002;2023-05-27T15:56:40;26.60;42.90
5960;DHT22;3006;50.956;7.002;2023-05-27T15:59:11;26.60;42.90
5960;DHT22;3006;50.956;7.002;2023-05-27T16:01:39;26.50;43.00
5960;DHT22;3006;50.956;7.002;2023-05-27T16:04:07;26.40;43.50
5960;DHT22;3006;50.956;7.002;2023-05-27T16:06:35;26.40;43.40
5960;DHT22;3006;50.956;7.002;2023-05-27T16:09:03;26.30;43.70
5960;DHT22;3006;50.956;7.002;2023-05-27T16:11:33;26.30;43.60
5960;DHT22;3006;50.956;7.002;2023-05-27T16:14:02;26.30;43.30
5960;DHT22;3006;50.956;7.002;2023-05-27T16:16:30;26.20;43.50
5960;DHT22;3006;50.956;7.002;2023-05-27T16:18:59;26.00;43.30
5960;DHT22;3006;50.956;7.002;2023-05-27T16:21:27;25.80;43.80
5960;DHT22;3006;50.956;7.002;2023-05-27T16:23:55;25.70;44.70